createdAt,value
2023-02-08T00:06:46.213Z,8.3
2023-02-08T00:14:18.548Z,8.3
2023-02-08T00:21:50.857Z,8.3
2023-02-08T00:29:23.171Z,8.3
2023-02-08T00:36:55.471Z,8.3
2023-02-08T00:44:27.804Z,8.3
2023-02-08T00:52:00.137Z,9.4
2023-02-08T00:59:32.506Z,9.4
2023-02-08T01:07:04.833Z,9.4
2023-02-08T01:14:37.172Z,9.4
2023-02-08T01:22:09.473Z,9.4
2023-02-08T01:29:41.775Z,9.4
2023-02-08T01:37:14.088Z,9.4
2023-02-08T01:44:46.436Z,9.4
2023-02-08T01:52:18.771Z,10.8
2023-02-08T01:59:51.101Z,10.8
2023-02-08T02:07:23.425Z,10.8
2023-02-08T02:14:55.744Z,10.8
2023-02-08T02:22:28.084Z,10.8
2023-02-08T02:30:00.373Z,10.8
2023-02-08T02:37:32.840Z,10.8
2023-02-08T02:45:05.144Z,10.8
2023-02-08T02:52:37.475Z,12.6
2023-02-08T03:00:09.803Z,12.6
2023-02-08T03:07:42.204Z,12.6
2023-02-08T03:15:14.537Z,12.6
2023-02-08T03:22:46.851Z,12.6
2023-02-08T03:30:19.150Z,12.6
2023-02-08T03:37:51.457Z,12.6
2023-02-08T03:45:23.789Z,12.6
2023-02-08T03:52:56.120Z,12.2
2023-02-08T04:00:28.448Z,12.2
2023-02-08T04:08:00.806Z,12.2
2023-02-08T04:15:33.176Z,12.2
2023-02-08T04:23:05.519Z,12.2
2023-02-08T04:30:37.893Z,12.2
2023-02-08T04:38:10.251Z,12.2
2023-02-08T04:45:42.583Z,12.2
2023-02-08T04:53:14.893Z,11.3
2023-02-08T05:00:47.197Z,11.3
2023-02-08T05:08:19.549Z,11.3
2023-02-08T05:15:51.890Z,11.3
2023-02-08T05:22:01.537Z,11.3
2023-02-08T05:22:48.860Z,11.3
2023-02-08T05:23:36.210Z,11.3
2023-02-08T05:24:23.549Z,11.3
2023-02-08T05:25:10.880Z,11.3
2023-02-08T05:25:58.305Z,11.3
2023-02-08T05:26:45.625Z,11.3
2023-02-08T05:27:32.957Z,11.3
2023-02-08T05:28:20.320Z,11.3
2023-02-08T05:29:07.674Z,11.3
2023-02-08T05:29:55.056Z,11.3
2023-02-08T05:30:42.661Z,11.3
2023-02-08T05:31:30.335Z,11.3
2023-02-08T05:32:17.693Z,11.3
2023-02-08T05:33:05.019Z,11.3
2023-02-08T05:33:52.340Z,11.3
2023-02-08T05:34:39.659Z,11.3
2023-02-08T05:35:27.025Z,11.3
2023-02-08T05:36:14.338Z,11.3
2023-02-08T05:37:01.648Z,11.3
2023-02-08T05:37:48.954Z,11.3
2023-02-08T05:38:36.269Z,11.3
2023-02-08T05:39:23.594Z,11.3
2023-02-08T05:40:10.945Z,11.3
2023-02-08T05:40:58.265Z,11.3
2023-02-08T05:41:45.596Z,11.3
2023-02-08T05:42:32.919Z,11.3
2023-02-08T05:43:20.252Z,10.2
2023-02-08T05:44:07.592Z,10.2
2023-02-08T05:44:54.914Z,10.2
2023-02-08T05:45:42.242Z,10.2
2023-02-08T05:46:29.690Z,10.2
2023-02-08T05:47:17.054Z,10.2
2023-02-08T05:48:04.368Z,10.2
2023-02-08T05:48:51.702Z,10.2
2023-02-08T05:49:39.023Z,10.2
2023-02-08T05:50:26.348Z,10.2
2023-02-08T05:51:13.710Z,10.2
2023-02-08T05:52:01.015Z,10.2
2023-02-08T05:52:48.332Z,10.2
2023-02-08T05:53:35.681Z,10.2
2023-02-08T05:54:23.049Z,10.2
2023-02-08T05:55:10.469Z,10.2
2023-02-08T05:55:57.796Z,10.2
2023-02-08T05:56:45.119Z,10.2
2023-02-08T05:57:35.454Z,10.2
2023-02-08T05:58:23.001Z,10.2
2023-02-08T05:59:10.442Z,10.2
2023-02-08T05:59:57.790Z,10.2
2023-02-08T06:00:45.157Z,10.2
2023-02-08T06:01:32.486Z,10.2
2023-02-08T06:02:19.814Z,10.2
2023-02-08T06:03:07.176Z,10.2
2023-02-08T06:03:54.607Z,10.2
2023-02-08T06:04:41.931Z,10.2
2023-02-08T06:05:29.258Z,10.2
2023-02-08T06:06:16.699Z,10.2
2023-02-08T06:07:04.037Z,10.2
2023-02-08T06:07:51.398Z,10.2
2023-02-08T06:08:38.826Z,10.2
2023-02-08T06:09:26.179Z,10.2
2023-02-08T06:10:13.498Z,10.2
2023-02-08T06:11:00.933Z,10.2
2023-02-08T06:11:48.253Z,10.2
2023-02-08T06:12:36.089Z,10.2
2023-02-08T06:13:23.426Z,10.2
2023-02-08T06:14:10.992Z,10.2
2023-02-08T06:14:58.421Z,10.2
2023-02-08T06:15:45.734Z,10.2
2023-02-08T06:16:33.209Z,10.2
2023-02-08T06:17:20.541Z,10.2
2023-02-08T06:18:07.868Z,10.2
2023-02-08T06:18:55.297Z,10.2
2023-02-08T06:19:42.609Z,10.2
2023-02-08T06:20:29.962Z,10.2
2023-02-08T06:21:17.373Z,10.2
2023-02-08T06:22:04.701Z,10.2
2023-02-08T06:22:52.066Z,10.2
2023-02-08T06:23:39.404Z,10.2
2023-02-08T06:24:26.739Z,10.2
2023-02-08T06:25:14.080Z,10.2
2023-02-08T06:26:01.484Z,10.2
2023-02-08T06:26:48.852Z,10.2
2023-02-08T06:27:36.166Z,10.2
2023-02-08T06:28:23.584Z,10.2
2023-02-08T06:29:10.923Z,10.2
2023-02-08T06:29:58.233Z,10.2
2023-02-08T06:30:45.644Z,10.2
2023-02-08T06:31:32.947Z,10.2
2023-02-08T06:32:20.313Z,10.2
2023-02-08T06:33:07.716Z,10.2
2023-02-08T06:33:55.045Z,10.2
2023-02-08T06:34:42.367Z,10.2
2023-02-08T06:35:29.782Z,10.2
2023-02-08T06:36:17.369Z,10.2
2023-02-08T06:37:04.721Z,10.2
2023-02-08T06:37:52.099Z,10.2
2023-02-08T06:38:39.436Z,10.2
2023-02-08T06:39:26.802Z,10.2
2023-02-08T06:40:14.248Z,10.2
2023-02-08T06:41:01.570Z,10.2
2023-02-08T06:41:48.901Z,10.2
2023-02-08T06:42:36.308Z,10.2
2023-02-08T06:43:23.638Z,13.5
2023-02-08T06:44:10.976Z,13.5
2023-02-08T06:44:58.368Z,13.5
2023-02-08T06:45:45.804Z,13.5
2023-02-08T06:46:33.151Z,13.5
2023-02-08T06:47:20.570Z,13.5
2023-02-08T06:48:07.880Z,13.5
2023-02-08T06:48:55.214Z,13.5
2023-02-08T06:49:42.627Z,13.5
2023-02-08T06:50:29.968Z,13.5
2023-02-08T06:51:17.323Z,13.5
2023-02-08T06:52:04.706Z,13.5
2023-02-08T06:52:52.068Z,13.5
2023-02-08T06:53:39.412Z,13.5
2023-02-08T06:54:26.786Z,13.5
2023-02-08T06:55:14.163Z,13.5
2023-02-08T06:56:01.476Z,13.5
2023-02-08T06:56:48.885Z,13.5
2023-02-08T06:57:36.220Z,13.5
2023-02-08T06:58:23.569Z,13.5
2023-02-08T06:59:11.015Z,13.5
2023-02-08T06:59:58.357Z,13.5
2023-02-08T07:00:45.684Z,13.5
2023-02-08T07:01:33.134Z,13.5
2023-02-08T07:02:20.474Z,13.5
2023-02-08T07:03:07.823Z,13.5
2023-02-08T07:03:55.214Z,13.5
2023-02-08T07:04:42.645Z,13.5
2023-02-08T07:05:29.991Z,13.5
2023-02-08T07:06:17.419Z,13.5
2023-02-08T07:07:04.786Z,13.5
2023-02-08T07:07:52.128Z,13.5
2023-02-08T07:08:39.547Z,13.5
2023-02-08T07:09:26.899Z,13.5
2023-02-08T07:10:14.231Z,13.5
2023-02-08T07:11:01.657Z,13.5
2023-02-08T07:11:48.993Z,13.5
2023-02-08T07:12:36.303Z,13.5
2023-02-08T07:13:23.757Z,13.5
2023-02-08T07:14:11.098Z,13.5
2023-02-08T07:14:58.440Z,13.5
2023-02-08T07:15:45.853Z,13.5
2023-02-08T07:16:33.251Z,13.5
2023-02-08T07:17:20.634Z,13.5
2023-02-08T07:18:08.063Z,13.5
2023-02-08T07:18:55.407Z,13.5
2023-02-08T07:19:42.752Z,13.5
2023-02-08T07:20:30.142Z,13.5
2023-02-08T07:21:17.458Z,13.5
2023-02-08T07:22:07.436Z,13.5
2023-02-08T07:22:54.836Z,13.5
2023-02-08T07:23:42.245Z,13.5
2023-02-08T07:24:29.569Z,13.5
2023-02-08T07:25:16.956Z,13.5
2023-02-08T07:26:04.313Z,13.5
2023-02-08T07:26:51.621Z,13.5
2023-02-08T07:27:38.931Z,13.5
2023-02-08T07:28:26.418Z,13.5
2023-02-08T07:29:13.775Z,13.5
2023-02-08T07:30:01.124Z,13.5
2023-02-08T07:30:48.967Z,13.5
2023-02-08T07:31:36.601Z,13.5
2023-02-08T07:32:23.956Z,13.5
2023-02-08T07:33:11.266Z,13.5
2023-02-08T07:33:58.685Z,13.5
2023-02-08T07:34:46.054Z,13.5
2023-02-08T07:35:33.389Z,13.5
2023-02-08T07:36:20.761Z,13.5
2023-02-08T07:37:08.097Z,13.5
2023-02-08T07:37:55.433Z,13.5
2023-02-08T07:38:42.845Z,13.5
2023-02-08T07:39:30.173Z,13.5
2023-02-08T07:40:17.518Z,13.5
2023-02-08T07:41:04.951Z,13.5
2023-02-08T07:41:52.303Z,13.5
2023-02-08T07:42:40.204Z,13.5
2023-02-08T07:43:27.539Z,20.9
2023-02-08T07:44:15.129Z,20.9
2023-02-08T07:45:02.481Z,20.9
2023-02-08T07:45:49.916Z,20.9
2023-02-08T07:46:37.279Z,20.9
2023-02-08T07:47:24.617Z,20.9
2023-02-08T07:48:11.967Z,20.9
2023-02-08T07:48:59.392Z,20.9
2023-02-08T07:49:46.737Z,20.9
2023-02-08T07:50:34.058Z,20.9
2023-02-08T07:51:21.502Z,20.9
2023-02-08T07:52:08.838Z,20.9
2023-02-08T07:52:56.275Z,20.9
2023-02-08T07:53:43.617Z,20.9
2023-02-08T07:54:30.944Z,20.9
2023-02-08T07:55:18.284Z,20.9
2023-02-08T07:56:05.689Z,20.9
2023-02-08T07:56:52.993Z,20.9
2023-02-08T07:57:40.289Z,20.9
2023-02-08T07:58:27.714Z,20.9
2023-02-08T07:59:15.081Z,20.9
2023-02-08T08:00:02.438Z,20.9
2023-02-08T08:00:49.801Z,20.9
2023-02-08T08:01:37.164Z,20.9
2023-02-08T08:02:24.538Z,20.9
2023-02-08T08:03:11.915Z,20.9
2023-02-08T08:03:59.561Z,20.9
2023-02-08T08:04:47.192Z,20.9
2023-02-08T08:05:34.550Z,20.9
2023-02-08T08:06:21.930Z,20.9
2023-02-08T08:07:09.300Z,20.9
2023-02-08T08:07:56.702Z,20.9
2023-02-08T08:08:44.045Z,20.9
2023-02-08T08:09:31.854Z,20.9
2023-02-08T08:10:19.187Z,20.9
2023-02-08T08:11:06.808Z,20.9
2023-02-08T08:11:54.107Z,20.9
2023-02-08T08:12:41.452Z,20.9
2023-02-08T08:13:28.873Z,20.9
2023-02-08T08:14:16.193Z,20.9
2023-02-08T08:15:03.528Z,20.9
2023-02-08T08:15:50.963Z,20.9
2023-02-08T08:16:38.334Z,20.9
2023-02-08T08:17:25.673Z,20.9
2023-02-08T08:18:13.079Z,20.9
2023-02-08T08:19:00.389Z,20.9
2023-02-08T08:19:47.703Z,20.9
2023-02-08T08:20:35.148Z,20.9
2023-02-08T08:21:22.475Z,20.9
2023-02-08T08:22:09.801Z,20.9
2023-02-08T08:22:57.256Z,20.9
2023-02-08T08:23:44.578Z,20.9
2023-02-08T08:24:31.917Z,20.9
2023-02-08T08:25:19.337Z,20.9
2023-02-08T08:26:06.676Z,20.9
2023-02-08T08:26:54.015Z,20.9
2023-02-08T08:27:41.461Z,20.9
2023-02-08T08:28:28.873Z,20.9
2023-02-08T08:29:16.252Z,20.9
2023-02-08T08:30:03.698Z,20.9
2023-02-08T08:30:51.282Z,20.9
2023-02-08T08:31:38.852Z,20.9
2023-02-08T08:32:26.285Z,20.9
2023-02-08T08:33:13.626Z,20.9
2023-02-08T08:34:00.958Z,20.9
2023-02-08T08:34:48.350Z,20.9
2023-02-08T08:35:35.713Z,20.9
2023-02-08T08:36:23.047Z,20.9
2023-02-08T08:37:10.469Z,20.9
2023-02-08T08:37:57.790Z,20.9
2023-02-08T08:38:45.180Z,20.9
2023-02-08T08:39:32.537Z,20.9
2023-02-08T08:40:19.872Z,20.9
2023-02-08T08:41:07.212Z,20.9
2023-02-08T08:41:54.599Z,20.9
2023-02-08T08:42:41.961Z,20.9
2023-02-08T08:43:29.306Z,26.6
2023-02-08T08:44:16.771Z,26.6
2023-02-08T08:45:04.148Z,26.6
2023-02-08T08:45:53.081Z,26.6
2023-02-08T08:46:40.574Z,26.6
2023-02-08T08:47:27.965Z,26.6
2023-02-08T08:48:15.313Z,26.6
2023-02-08T08:49:02.671Z,26.6
2023-02-08T08:49:50.066Z,26.6
2023-02-08T08:50:37.392Z,26.6
2023-02-08T08:51:24.734Z,26.6
2023-02-08T08:52:12.155Z,26.6
2023-02-08T08:52:59.525Z,26.6
2023-02-08T08:53:46.855Z,26.6
2023-02-08T08:54:34.289Z,26.6
2023-02-08T08:55:21.832Z,26.6
2023-02-08T08:56:09.224Z,26.6
2023-02-08T08:56:56.592Z,26.6
2023-02-08T08:57:43.927Z,26.6
2023-02-08T08:58:31.253Z,26.6
2023-02-08T08:59:18.712Z,26.6
2023-02-08T09:00:06.042Z,26.6
2023-02-08T09:00:53.365Z,26.6
2023-02-08T09:01:40.824Z,26.6
2023-02-08T09:02:28.185Z,26.6
2023-02-08T09:03:15.652Z,26.6
2023-02-08T09:04:03.052Z,26.6
2023-02-08T09:04:50.378Z,26.6
2023-02-08T09:05:37.703Z,26.6
2023-02-08T09:06:25.084Z,26.6
2023-02-08T09:07:12.412Z,26.6
2023-02-08T09:07:59.747Z,26.6
2023-02-08T09:08:47.152Z,26.6
2023-02-08T09:09:34.482Z,26.6
2023-02-08T09:10:21.900Z,26.6
2023-02-08T09:11:09.249Z,26.6
2023-02-08T09:11:56.589Z,26.6
2023-02-08T09:12:43.957Z,26.6
2023-02-08T09:13:31.321Z,26.6
2023-02-08T09:14:18.638Z,26.6
2023-02-08T09:15:05.963Z,26.6
2023-02-08T09:15:53.360Z,26.6
2023-02-08T09:16:40.721Z,26.6
2023-02-08T09:17:28.057Z,26.6
2023-02-08T09:18:15.457Z,26.6
2023-02-08T09:19:02.883Z,26.6
2023-02-08T09:19:50.289Z,26.6
2023-02-08T09:20:37.641Z,26.6
2023-02-08T09:21:24.972Z,26.6
2023-02-08T09:22:12.312Z,26.6
2023-02-08T09:22:59.706Z,26.6
2023-02-08T09:23:47.038Z,26.6
2023-02-08T09:24:34.360Z,26.6
2023-02-08T09:25:21.781Z,26.6
2023-02-08T09:26:09.104Z,26.6
2023-02-08T09:26:56.422Z,26.6
2023-02-08T09:27:43.840Z,26.6
2023-02-08T09:28:31.165Z,26.6
2023-02-08T09:29:18.556Z,26.6
2023-02-08T09:30:05.902Z,26.6
2023-02-08T09:30:53.277Z,26.6
2023-02-08T09:31:40.711Z,26.6
2023-02-08T09:32:28.161Z,26.6
2023-02-08T09:33:15.550Z,26.6
2023-02-08T09:34:02.900Z,26.6
2023-02-08T09:34:50.353Z,26.6
2023-02-08T09:35:37.739Z,26.6
2023-02-08T09:36:25.190Z,26.6
2023-02-08T09:37:12.545Z,26.6
2023-02-08T09:37:59.871Z,26.6
2023-02-08T09:38:47.226Z,26.6
2023-02-08T09:39:34.659Z,26.6
2023-02-08T09:40:21.985Z,26.6
2023-02-08T09:41:09.337Z,26.6
2023-02-08T09:41:56.730Z,26.6
2023-02-08T09:42:44.075Z,26.6
2023-02-08T09:43:31.398Z,24.0
2023-02-08T09:44:18.814Z,24.0
2023-02-08T09:45:06.161Z,24.0
2023-02-08T09:45:59.844Z,24.0
2023-02-08T09:46:47.684Z,24.0
2023-02-08T09:47:36.135Z,24.0
2023-02-08T09:48:23.720Z,24.0
2023-02-08T09:49:11.181Z,24.0
2023-02-08T09:49:58.780Z,24.0
2023-02-08T09:50:46.169Z,24.0
2023-02-08T09:51:33.499Z,24.0
2023-02-08T09:52:20.832Z,24.0
2023-02-08T09:53:08.147Z,24.0
2023-02-08T09:53:55.545Z,24.0
2023-02-08T09:54:42.891Z,24.0
2023-02-08T09:55:30.257Z,24.0
2023-02-08T09:56:17.637Z,24.0
2023-02-08T09:57:04.971Z,24.0
2023-02-08T09:57:52.285Z,24.0
2023-02-08T09:58:39.614Z,24.0
2023-02-08T09:59:26.954Z,24.0
2023-02-08T10:00:14.275Z,24.0
2023-02-08T10:01:01.642Z,24.0
2023-02-08T10:01:49.165Z,24.0
2023-02-08T10:02:36.509Z,24.0
2023-02-08T10:03:23.859Z,24.0
2023-02-08T10:04:11.188Z,24.0
2023-02-08T10:04:58.509Z,24.0
2023-02-08T10:05:45.884Z,24.0
2023-02-08T10:06:33.255Z,24.0
2023-02-08T10:07:20.627Z,24.0
2023-02-08T10:08:07.982Z,24.0
2023-02-08T10:08:55.323Z,24.0
2023-02-08T10:09:42.654Z,24.0
2023-02-08T10:10:30.048Z,24.0
2023-02-08T10:11:17.406Z,24.0
2023-02-08T10:12:04.760Z,24.0
2023-02-08T10:12:52.293Z,24.0
2023-02-08T10:13:41.765Z,24.0
2023-02-08T10:14:29.218Z,24.0
2023-02-08T10:15:16.649Z,24.0
2023-02-08T10:16:04.034Z,24.0
2023-02-08T10:16:51.380Z,24.0
2023-02-08T10:17:38.841Z,24.0
2023-02-08T10:18:26.257Z,24.0
2023-02-08T10:19:13.642Z,24.0
2023-02-08T10:20:01.782Z,24.0
2023-02-08T10:20:49.101Z,24.0
2023-02-08T10:21:36.433Z,24.0
2023-02-08T10:22:23.787Z,24.0
2023-02-08T10:23:11.222Z,24.0
2023-02-08T10:23:58.562Z,24.0
2023-02-08T10:24:45.886Z,24.0
2023-02-08T10:25:33.312Z,24.0
2023-02-08T10:26:20.683Z,24.0
2023-02-08T10:27:08.055Z,24.0
2023-02-08T10:27:55.470Z,24.0
2023-02-08T10:28:42.839Z,24.0
2023-02-08T10:29:30.188Z,24.0
2023-02-08T10:30:17.622Z,24.0
2023-02-08T10:31:05.040Z,24.0
2023-02-08T10:31:52.458Z,24.0
2023-02-08T10:32:39.853Z,24.0
2023-02-08T10:33:27.224Z,24.0
2023-02-08T10:34:14.712Z,24.0
2023-02-08T10:35:02.060Z,24.0
2023-02-08T10:35:49.396Z,24.0
2023-02-08T10:36:36.720Z,24.0
2023-02-08T10:37:24.115Z,24.0
2023-02-08T10:38:11.462Z,24.0
2023-02-08T10:38:58.784Z,24.0
2023-02-08T10:39:46.173Z,24.0
2023-02-08T10:40:33.494Z,24.0
2023-02-08T10:41:20.805Z,24.0
2023-02-08T10:42:08.251Z,24.0
2023-02-08T10:42:55.662Z,23.9
2023-02-08T10:43:42.976Z,23.9
2023-02-08T10:44:30.391Z,23.9
2023-02-08T10:45:24.398Z,23.9
2023-02-08T10:46:12.343Z,23.9
2023-02-08T10:46:59.655Z,23.9
2023-02-08T10:47:47.008Z,23.9
2023-02-08T10:48:34.397Z,23.9
2023-02-08T10:49:21.754Z,23.9
2023-02-08T10:50:09.087Z,23.9
2023-02-08T10:50:56.397Z,23.9
2023-02-08T10:51:43.873Z,23.9
2023-02-08T10:52:31.209Z,23.9
2023-02-08T10:53:18.555Z,23.9
2023-02-08T10:54:05.979Z,23.9
2023-02-08T10:54:53.341Z,23.9
2023-02-08T10:55:40.848Z,23.9
2023-02-08T10:56:29.242Z,23.9
2023-02-08T10:57:16.557Z,23.9
2023-02-08T10:58:04.142Z,23.9
2023-02-08T10:58:51.522Z,23.9
2023-02-08T10:59:39.009Z,23.9
2023-02-08T11:00:26.355Z,23.9
2023-02-08T11:01:13.728Z,23.9
2023-02-08T11:02:01.081Z,23.9
2023-02-08T11:02:48.415Z,23.9
2023-02-08T11:03:35.725Z,23.9
2023-02-08T11:04:23.129Z,23.9
2023-02-08T11:05:10.485Z,23.9
2023-02-08T11:05:57.820Z,23.9
2023-02-08T11:06:45.162Z,23.9
2023-02-08T11:07:34.633Z,23.9
2023-02-08T11:08:23.404Z,23.9
2023-02-08T11:09:10.762Z,23.9
2023-02-08T11:09:58.194Z,23.9
2023-02-08T11:10:45.504Z,23.9
2023-02-08T11:11:32.973Z,23.9
2023-02-08T11:12:20.282Z,23.9
2023-02-08T11:13:07.783Z,23.9
2023-02-08T11:13:55.104Z,23.9
2023-02-08T11:14:47.027Z,23.9
2023-02-08T11:15:34.850Z,23.9
2023-02-08T11:16:22.372Z,23.9
2023-02-08T11:17:09.735Z,23.9
2023-02-08T11:17:57.061Z,23.9
2023-02-08T11:18:44.480Z,23.9
2023-02-08T11:19:31.794Z,23.9
2023-02-08T11:20:19.135Z,23.9
2023-02-08T11:21:06.544Z,23.9
2023-02-08T11:21:53.874Z,23.9
2023-02-08T11:22:41.238Z,23.9
2023-02-08T11:23:28.606Z,23.9
2023-02-08T11:24:15.931Z,23.9
2023-02-08T11:25:03.823Z,23.9
2023-02-08T11:25:51.140Z,23.9
2023-02-08T11:26:38.679Z,23.9
2023-02-08T11:27:26.018Z,23.9
2023-02-08T11:34:58.340Z,23.9
2023-02-08T11:42:30.660Z,23.9
2023-02-08T11:43:17.971Z,15.0
2023-02-08T11:44:05.410Z,15.0
2023-02-08T11:44:52.721Z,15.0
2023-02-08T11:45:40.032Z,15.0
2023-02-08T11:46:27.450Z,15.0
2023-02-08T11:47:14.766Z,15.0
2023-02-08T11:48:02.082Z,15.0
2023-02-08T11:48:49.475Z,15.0
2023-02-08T11:49:36.835Z,15.0
2023-02-08T11:50:24.166Z,15.0
2023-02-08T11:51:11.573Z,15.0
2023-02-08T11:51:58.909Z,15.0
2023-02-08T11:52:46.297Z,15.0
2023-02-08T11:53:33.698Z,15.0
2023-02-08T11:54:21.038Z,15.0
2023-02-08T11:55:08.354Z,15.0
2023-02-08T11:55:55.768Z,15.0
2023-02-08T11:56:43.080Z,15.0
2023-02-08T11:57:30.381Z,15.0
2023-02-08T11:58:17.783Z,15.0
2023-02-08T11:59:05.130Z,15.0
2023-02-08T11:59:52.480Z,15.0
2023-02-08T12:00:39.871Z,15.0
2023-02-08T12:01:27.211Z,15.0
2023-02-08T12:02:14.568Z,15.0
2023-02-08T12:03:02.007Z,15.0
2023-02-08T12:03:49.349Z,15.0
2023-02-08T12:04:36.718Z,15.0
2023-02-08T12:05:24.198Z,15.0
2023-02-08T12:06:11.533Z,15.0
2023-02-08T12:06:58.880Z,15.0
2023-02-08T12:07:46.270Z,15.0
2023-02-08T12:08:33.605Z,15.0
2023-02-08T12:09:20.965Z,15.0
2023-02-08T12:10:08.396Z,15.0
2023-02-08T12:10:55.732Z,15.0
2023-02-08T12:11:43.078Z,15.0
2023-02-08T12:12:30.492Z,15.0
2023-02-08T12:13:17.826Z,15.0
2023-02-08T12:14:05.155Z,15.0
2023-02-08T12:14:52.549Z,15.0
2023-02-08T12:15:51.329Z,15.0
2023-02-08T12:16:37.270Z,15.0
2023-02-08T12:17:24.851Z,15.0
2023-02-08T12:18:12.373Z,15.0
2023-02-08T12:18:59.762Z,15.0
2023-02-08T12:19:47.133Z,15.0
2023-02-08T12:20:34.434Z,15.0
2023-02-08T12:21:21.773Z,15.0
2023-02-08T12:22:10.746Z,15.0
2023-02-08T12:22:58.249Z,15.0
2023-02-08T12:23:45.573Z,15.0
2023-02-08T12:24:32.893Z,15.0
2023-02-08T12:25:20.308Z,15.0
2023-02-08T12:26:07.720Z,15.0
2023-02-08T12:26:55.047Z,15.0
2023-02-08T12:27:42.394Z,15.0
2023-02-08T12:28:29.826Z,15.0
2023-02-08T12:29:17.195Z,15.0
2023-02-08T12:30:04.529Z,15.0
2023-02-08T12:30:52.053Z,15.0
2023-02-08T12:31:39.475Z,15.0
2023-02-08T12:32:26.830Z,15.0
2023-02-08T12:33:16.788Z,15.0
2023-02-08T12:34:04.485Z,15.0
2023-02-08T12:34:51.823Z,15.0
2023-02-08T12:35:48.332Z,15.0
2023-02-08T12:36:36.460Z,15.0
2023-02-08T12:37:23.857Z,15.0
2023-02-08T12:38:11.180Z,15.0
2023-02-08T12:39:01.694Z,15.0
2023-02-08T12:39:50.805Z,15.0
2023-02-08T12:40:38.184Z,15.0
2023-02-08T12:41:25.495Z,15.0
2023-02-08T12:42:12.874Z,15.0
2023-02-08T12:43:00.284Z,19.1
2023-02-08T12:43:47.609Z,19.1
2023-02-08T12:44:34.934Z,19.1
2023-02-08T12:45:22.354Z,19.1
2023-02-08T12:46:09.707Z,19.1
2023-02-08T12:46:57.089Z,19.1
2023-02-08T12:47:54.787Z,19.1
2023-02-08T12:48:41.748Z,19.1
2023-02-08T12:49:29.192Z,19.1
2023-02-08T12:50:16.505Z,19.1
2023-02-08T12:51:03.842Z,19.1
2023-02-08T12:51:51.267Z,19.1
2023-02-08T12:52:38.586Z,19.1
2023-02-08T12:53:25.938Z,19.1
2023-02-08T12:54:13.312Z,19.1
2023-02-08T12:55:00.658Z,19.1
2023-02-08T12:55:47.992Z,19.1
2023-02-08T12:56:35.363Z,19.1
2023-02-08T12:57:22.693Z,19.1
2023-02-08T12:58:10.019Z,19.1
2023-02-08T12:59:08.155Z,19.1
2023-02-08T12:59:54.718Z,19.1
2023-02-08T13:00:42.440Z,19.1
2023-02-08T13:01:30.235Z,19.1
2023-02-08T13:02:17.631Z,19.1
2023-02-08T13:03:04.991Z,19.1
2023-02-08T13:03:52.393Z,19.1
2023-02-08T13:04:39.701Z,19.1
2023-02-08T13:05:27.042Z,19.1
2023-02-08T13:06:14.446Z,19.1
2023-02-08T13:07:01.804Z,19.1
2023-02-08T13:07:49.194Z,19.1
2023-02-08T13:08:36.545Z,19.1
2023-02-08T13:09:23.871Z,19.1
2023-02-08T13:10:11.228Z,19.1
2023-02-08T13:11:01.710Z,19.1
2023-02-08T13:11:55.639Z,19.1
2023-02-08T13:12:43.053Z,19.1
2023-02-08T13:13:30.384Z,19.1
2023-02-08T13:14:17.708Z,19.1
2023-02-08T13:15:05.152Z,19.1
2023-02-08T13:15:52.579Z,19.1
2023-02-08T13:16:39.943Z,19.1
2023-02-08T13:17:27.419Z,19.1
2023-02-08T13:18:15.232Z,19.1
2023-02-08T13:19:02.533Z,19.1
2023-02-08T13:19:59.622Z,19.1
2023-02-08T13:20:47.381Z,19.1
2023-02-08T13:21:34.752Z,19.1
2023-02-08T13:22:22.087Z,19.1
2023-02-08T13:23:09.436Z,19.1
2023-02-08T13:23:56.809Z,19.1
2023-02-08T13:24:44.129Z,19.1
2023-02-08T13:25:31.448Z,19.1
2023-02-08T13:26:18.891Z,19.1
2023-02-08T13:27:06.234Z,19.1
2023-02-08T13:27:53.604Z,19.1
2023-02-08T13:28:41.124Z,19.1
2023-02-08T13:29:28.532Z,19.1
2023-02-08T13:30:16.151Z,19.1
2023-02-08T13:31:03.635Z,19.1
2023-02-08T13:31:51.021Z,19.1
2023-02-08T13:32:38.381Z,19.1
2023-02-08T13:33:25.751Z,19.1
2023-02-08T13:34:13.090Z,19.1
2023-02-08T13:35:00.457Z,19.1
2023-02-08T13:35:47.881Z,19.1
2023-02-08T13:36:35.260Z,19.1
2023-02-08T13:37:25.620Z,19.1
2023-02-08T13:38:13.956Z,19.1
2023-02-08T13:39:01.508Z,19.1
2023-02-08T13:39:48.857Z,19.1
2023-02-08T13:40:36.176Z,19.1
2023-02-08T13:41:23.597Z,19.1
2023-02-08T13:42:10.977Z,19.1
2023-02-08T13:42:58.312Z,14.6
2023-02-08T13:43:45.750Z,14.6
2023-02-08T13:44:33.167Z,14.6
2023-02-08T13:45:20.527Z,14.6
2023-02-08T13:46:07.938Z,14.6
2023-02-08T13:46:55.408Z,14.6
2023-02-08T13:47:42.761Z,14.6
2023-02-08T13:48:30.140Z,14.6
2023-02-08T13:49:17.462Z,14.6
2023-02-08T13:50:04.729Z,14.6
2023-02-08T13:50:52.195Z,14.6
2023-02-08T13:51:39.540Z,14.6
2023-02-08T13:52:28.795Z,14.6
2023-02-08T13:53:20.970Z,14.6
2023-02-08T13:54:09.272Z,14.6
2023-02-08T13:54:56.670Z,14.6
2023-02-08T13:55:44.194Z,14.6
2023-02-08T13:56:31.670Z,14.6
2023-02-08T13:57:19.084Z,14.6
2023-02-08T13:58:06.450Z,14.6
2023-02-08T13:58:53.758Z,14.6
2023-02-08T13:59:41.192Z,14.6
2023-02-08T14:00:28.506Z,14.6
2023-02-08T14:01:15.842Z,14.6
2023-02-08T14:02:03.291Z,14.6
2023-02-08T14:02:50.654Z,14.6
2023-02-08T14:03:37.996Z,14.6
2023-02-08T14:04:25.419Z,14.6
2023-02-08T14:05:12.753Z,14.6
2023-02-08T14:06:00.089Z,14.6
2023-02-08T14:06:47.524Z,14.6
2023-02-08T14:07:34.845Z,14.6
2023-02-08T14:08:22.176Z,14.6
2023-02-08T14:09:09.668Z,14.6
2023-02-08T14:09:57.000Z,14.6
2023-02-08T14:10:44.608Z,14.6
2023-02-08T14:11:32.115Z,14.6
2023-02-08T14:12:19.460Z,14.6
2023-02-08T14:13:06.795Z,14.6
2023-02-08T14:13:54.166Z,14.6
2023-02-08T14:14:41.483Z,14.6
2023-02-08T14:15:28.829Z,14.6
2023-02-08T14:16:16.219Z,14.6
2023-02-08T14:17:03.544Z,14.6
2023-02-08T14:17:50.863Z,14.6
2023-02-08T14:18:38.178Z,14.6
2023-02-08T14:19:25.534Z,14.6
2023-02-08T14:20:12.872Z,14.6
2023-02-08T14:21:00.258Z,14.6
2023-02-08T14:21:47.618Z,14.6
2023-02-08T14:22:34.936Z,14.6
2023-02-08T14:23:22.267Z,14.6
2023-02-08T14:24:09.786Z,14.6
2023-02-08T14:24:57.145Z,14.6
2023-02-08T14:25:44.726Z,14.6
2023-02-08T14:26:32.235Z,14.6
2023-02-08T14:27:19.582Z,14.6
2023-02-08T14:28:06.949Z,14.6
2023-02-08T14:28:54.266Z,14.6
2023-02-08T14:29:41.625Z,14.6
2023-02-08T14:30:28.943Z,14.6
2023-02-08T14:31:16.315Z,14.6
2023-02-08T14:32:03.729Z,14.6
2023-02-08T14:32:51.107Z,14.6
2023-02-08T14:33:38.477Z,14.6
2023-02-08T14:34:25.785Z,14.6
2023-02-08T14:35:13.132Z,14.6
2023-02-08T14:36:00.467Z,14.6
2023-02-08T14:36:47.803Z,14.6
2023-02-08T14:37:35.132Z,14.6
2023-02-08T14:38:22.441Z,14.6
2023-02-08T14:39:09.820Z,14.6
2023-02-08T14:39:57.160Z,14.6
2023-02-08T14:40:44.637Z,14.6
2023-02-08T14:41:32.097Z,14.6
2023-02-08T14:42:19.427Z,14.6
2023-02-08T14:43:06.708Z,12.5
2023-02-08T14:43:54.035Z,12.5
2023-02-08T14:44:41.356Z,12.5
2023-02-08T14:45:28.681Z,12.5
2023-02-08T14:46:16.003Z,12.5
2023-02-08T14:47:03.407Z,12.5
2023-02-08T14:47:50.756Z,12.5
2023-02-08T14:48:38.399Z,12.5
2023-02-08T14:49:25.738Z,12.5
2023-02-08T14:50:13.092Z,12.5
2023-02-08T14:51:00.452Z,12.5
2023-02-08T14:51:47.779Z,12.5
2023-02-08T14:52:35.495Z,12.5
2023-02-08T14:53:22.866Z,12.5
2023-02-08T14:54:10.398Z,12.5
2023-02-08T14:54:57.708Z,12.5
2023-02-08T14:55:45.282Z,12.5
2023-02-08T14:56:33.062Z,12.5
2023-02-08T14:57:20.436Z,12.5
2023-02-08T14:58:07.774Z,12.5
2023-02-08T14:58:55.087Z,12.5
2023-02-08T14:59:42.412Z,12.5
2023-02-08T15:00:29.833Z,12.5
2023-02-08T15:01:17.265Z,12.5
2023-02-08T15:02:04.749Z,12.5
2023-02-08T15:02:52.178Z,12.5
2023-02-08T15:03:40.171Z,12.5
2023-02-08T15:04:27.601Z,12.5
2023-02-08T15:05:14.953Z,12.5
2023-02-08T15:06:02.307Z,12.5
2023-02-08T15:06:50.146Z,12.5
2023-02-08T15:07:37.557Z,12.5
2023-02-08T15:08:25.069Z,12.5
2023-02-08T15:09:12.406Z,12.5
2023-02-08T15:09:59.730Z,12.5
2023-02-08T15:10:47.150Z,12.5
2023-02-08T15:11:34.491Z,12.5
2023-02-08T15:12:21.986Z,12.5
2023-02-08T15:13:09.317Z,12.5
2023-02-08T15:13:56.626Z,12.5
2023-02-08T15:14:44.990Z,12.5
2023-02-08T15:15:32.323Z,12.5
2023-02-08T15:16:19.643Z,12.5
2023-02-08T15:17:06.992Z,12.5
2023-02-08T15:17:54.345Z,12.5
2023-02-08T15:18:41.716Z,12.5
2023-02-08T15:19:29.032Z,12.5
2023-02-08T15:20:16.366Z,12.5
2023-02-08T15:21:03.788Z,12.5
2023-02-08T15:21:51.124Z,12.5
2023-02-08T15:22:38.461Z,12.5
2023-02-08T15:23:25.858Z,12.5
2023-02-08T15:24:13.194Z,12.5
2023-02-08T15:25:00.541Z,12.5
2023-02-08T15:25:47.902Z,12.5
2023-02-08T15:26:35.221Z,12.5
2023-02-08T15:27:22.544Z,12.5
2023-02-08T15:28:09.980Z,12.5
2023-02-08T15:28:58.701Z,12.5
2023-02-08T15:29:47.494Z,12.5
2023-02-08T15:30:36.053Z,12.5
2023-02-08T15:31:23.451Z,12.5
2023-02-08T15:32:10.818Z,12.5
2023-02-08T15:32:58.119Z,12.5
2023-02-08T15:33:45.588Z,12.5
2023-02-08T15:34:32.948Z,12.5